sensor_id;sensor_type;location;lat;lon;timestamp;temperature;humidity
71096;DHT22;58753;49.440;11.126;2023-03-14T00:01:45;8.59;93.44
71096;DHT22;58753;49.440;11.126;2023-03-14T00:04:11;8.61;93.43
71096;DHT22;58753;49.440;11.126;2023-03-14T00:06:36;8.59;93.44
71096;DHT22;58753;49.440;11.126;2023-03-14T00:09:02;8.61;93.37
71096;DHT22;58753;49.440;11.126;2023-03-14T00:11:28;8.60;93.32
71096;DHT22;58753;49.440;11.126;2023-03-14T00:13:54;8.60;93.26
71096;DHT22;58753;49.440;11.126;2023-03-14T00:16:20;8.60;93.25
71096;DHT22;58753;49.440;11.126;2023-03-14T00:18:46;8.59;93.22
71096;DHT22;58753;49.440;11.126;2023-03-14T00:21:12;8.63;93.25
71096;DHT22;58753;49.440;11.126;2023-03-14T00:23:40;8.61;93.18
71096;DHT22;58753;49.440;11.126;2023-03-14T00:26:14;8.60;93.25
71096;DHT22;58753;49.440;11.126;2023-03-14T00:28:41;8.60;93.24
71096;DHT22;58753;49.440;11.126;2023-03-14T00:31:08;8.60;93.17
71096;DHT22;58753;49.440;11.126;2023-03-14T00:33:34;8.59;93.19
71096;DHT22;58753;49.440;11.126;2023-03-14T00:36:05;8.60;93.22
71096;DHT22;58753;49.440;11.126;2023-03-14T00:38:32;8.60;93.21
71096;DHT22;58753;49.440;11.126;2023-03-14T00:40:58;8.59;93.13
71096;DHT22;58753;49.440;11.126;2023-03-14T00:43:24;8.59;93.05
71096;DHT22;58753;49.440;11.126;2023-03-14T00:45:50;8.59;93.06
71096;DHT22;58753;49.440;11.126;2023-03-14T00:48:16;8.57;92.99
71096;DHT22;58753;49.440;11.126;2023-03-14T00:50:42;8.60;93.04
71096;DHT22;58753;49.440;11.126;2023-03-14T00:53:07;8.60;92.98
71096;DHT22;58753;49.440;11.126;2023-03-14T00:55:37;8.59;92.90
71096;DHT22;58753;49.440;11.126;2023-03-14T00:58:02;8.60;92.85
71096;DHT22;58753;49.440;11.126;2023-03-14T01:00:27;8.59;92.84
71096;DHT22;58753;49.440;11.126;2023-03-14T01:02:53;8.59;92.81
71096;DHT22;58753;49.440;11.126;2023-03-14T01:05:18;8.56;92.84
71096;DHT22;58753;49.440;11.126;2023-03-14T01:07:44;8.57;92.77
71096;DHT22;58753;49.440;11.126;2023-03-14T01:10:10;8.57;92.75
71096;DHT22;58753;49.440;11.126;2023-03-14T01:12:35;8.57;92.62
71096;DHT22;58753;49.440;11.126;2023-03-14T01:15:01;8.53;92.59
71096;DHT22;58753;49.440;11.126;2023-03-14T01:17:26;8.53;92.68
71096;DHT22;58753;49.440;11.126;2023-03-14T01:19:51;8.50;92.68
71096;DHT22;58753;49.440;11.126;2023-03-14T01:22:17;8.50;92.64
71096;DHT22;58753;49.440;11.126;2023-03-14T01:24:42;8.54;92.57
71096;DHT22;58753;49.440;11.126;2023-03-14T01:27:07;8.52;92.56
71096;DHT22;58753;49.440;11.126;2023-03-14T01:29:33;8.50;92.56
71096;DHT22;58753;49.440;11.126;2023-03-14T01:31:58;8.54;92.55
71096;DHT22;58753;49.440;11.126;2023-03-14T01:34:24;8.53;92.40
71096;DHT22;58753;49.440;11.126;2023-03-14T01:36:49;8.50;92.52
71096;DHT22;58753;49.440;11.126;2023-03-14T01:39:15;8.52;92.48
71096;DHT22;58753;49.440;11.126;2023-03-14T01:41:40;8.50;92.46
71096;DHT22;58753;49.440;11.126;2023-03-14T01:44:10;8.46;92.48
71096;DHT22;58753;49.440;11.126;2023-03-14T01:46:41;8.40;92.55
71096;DHT22;58753;49.440;11.126;2023-03-14T01:49:11;8.37;92.49
71096;DHT22;58753;49.440;11.126;2023-03-14T01:51:49;8.37;92.62
71096;DHT22;58753;49.440;11.126;2023-03-14T01:54:29;8.42;92.78
71096;DHT22;58753;49.440;11.126;2023-03-14T01:57:04;8.44;92.80
71096;DHT22;58753;49.440;11.126;2023-03-14T01:59:32;8.46;92.86
71096;DHT22;58753;49.440;11.126;2023-03-14T02:01:59;8.49;92.83
71096;DHT22;58753;49.440;11.126;2023-03-14T02:04:27;8.50;92.86
71096;DHT22;58753;49.440;11.126;2023-03-14T02:07:03;8.52;92.84
71096;DHT22;58753;49.440;11.126;2023-03-14T02:09:31;8.52;92.81
71096;DHT22;58753;49.440;11.126;2023-03-14T02:11:56;8.53;92.91
71096;DHT22;58753;49.440;11.126;2023-03-14T02:14:29;8.59;92.94
71096;DHT22;58753;49.440;11.126;2023-03-14T02:16:55;8.60;92.88
71096;DHT22;58753;49.440;11.126;2023-03-14T02:19:30;8.59;92.84
71096;DHT22;58753;49.440;11.126;2023-03-14T02:22:12;8.59;92.83
71096;DHT22;58753;49.440;11.126;2023-03-14T02:24:45;8.59;92.82
71096;DHT22;58753;49.440;11.126;2023-03-14T02:27:17;8.61;92.84
71096;DHT22;58753;49.440;11.126;2023-03-14T02:29:52;8.61;92.75
71096;DHT22;58753;49.440;11.126;2023-03-14T02:32:19;8.63;92.65
71096;DHT22;58753;49.440;11.126;2023-03-14T02:34:49;8.64;92.61
71096;DHT22;58753;49.440;11.126;2023-03-14T02:37:16;8.68;92.52
71096;DHT22;58753;49.440;11.126;2023-03-14T02:39:44;8.67;92.48
71096;DHT22;58753;49.440;11.126;2023-03-14T02:42:10;8.67;92.42
71096;DHT22;58753;49.440;11.126;2023-03-14T02:44:45;8.63;92.35
71096;DHT22;58753;49.440;11.126;2023-03-14T02:47:11;8.64;92.40
71096;DHT22;58753;49.440;11.126;2023-03-14T02:49:36;8.61;92.32
71096;DHT22;58753;49.440;11.126;2023-03-14T02:52:02;8.61;92.28
71096;DHT22;58753;49.440;11.126;2023-03-14T02:54:27;8.59;92.25
71096;DHT22;58753;49.440;11.126;2023-03-14T02:56:52;8.61;92.25
71096;DHT22;58753;49.440;11.126;2023-03-14T02:59:18;8.60;92.21
71096;DHT22;58753;49.440;11.126;2023-03-14T03:01:43;8.61;92.10
71096;DHT22;58753;49.440;11.126;2023-03-14T03:04:08;8.57;92.07
71096;DHT22;58753;49.440;11.126;2023-03-14T03:06:34;8.53;92.04
71096;DHT22;58753;49.440;11.126;2023-03-14T03:08:59;8.53;92.10
71096;DHT22;58753;49.440;11.126;2023-03-14T03:11:25;8.53;92.09
71096;DHT22;58753;49.440;11.126;2023-03-14T03:13:50;8.52;92.07
71096;DHT22;58753;49.440;11.126;2023-03-14T03:16:16;8.52;92.05
71096;DHT22;58753;49.440;11.126;2023-03-14T03:18:41;8.52;92.01
71096;DHT22;58753;49.440;11.126;2023-03-14T03:21:07;8.53;92.02
71096;DHT22;58753;49.440;11.126;2023-03-14T03:23:34;8.50;91.94
71096;DHT22;58753;49.440;11.126;2023-03-14T03:25:59;8.47;91.87
71096;DHT22;58753;49.440;11.126;2023-03-14T03:28:25;8.47;91.90
71096;DHT22;58753;49.440;11.126;2023-03-14T03:30:50;8.46;91.82
71096;DHT22;58753;49.440;11.126;2023-03-14T03:33:15;8.40;91.81
71096;DHT22;58753;49.440;11.126;2023-03-14T03:35:43;8.37;91.88
71096;DHT22;58753;49.440;11.126;2023-03-14T03:38:08;8.36;91.89
71096;DHT22;58753;49.440;11.126;2023-03-14T03:40:34;8.33;91.90
71096;DHT22;58753;49.440;11.126;2023-03-14T03:42:59;8.34;91.88
71096;DHT22;58753;49.440;11.126;2023-03-14T03:45:25;8.33;91.82
71096;DHT22;58753;49.440;11.126;2023-03-14T03:47:51;8.34;91.80
71096;DHT22;58753;49.440;11.126;2023-03-14T03:50:16;8.36;91.69
71096;DHT22;58753;49.440;11.126;2023-03-14T03:52:41;8.37;91.58
71096;DHT22;58753;49.440;11.126;2023-03-14T03:55:07;8.37;91.48
71096;DHT22;58753;49.440;11.126;2023-03-14T03:57:33;8.36;91.43
71096;DHT22;58753;49.440;11.126;2023-03-14T03:59:58;8.33;91.30
71096;DHT22;58753;49.440;11.126;2023-03-14T04:02:24;8.33;91.27
71096;DHT22;58753;49.440;11.126;2023-03-14T04:04:49;8.32;91.22
71096;DHT22;58753;49.440;11.126;2023-03-14T04:07:14;8.29;91.13
71096;DHT22;58753;49.440;11.126;2023-03-14T04:09:40;8.26;91.13
71096;DHT22;58753;49.440;11.126;2023-03-14T04:12:05;8.28;91.09
71096;DHT22;58753;49.440;11.126;2023-03-14T04:14:31;8.25;91.04
71096;DHT22;58753;49.440;11.126;2023-03-14T04:16:56;8.22;91.05
71096;DHT22;58753;49.440;11.126;2023-03-14T04:19:21;8.16;91.05
71096;DHT22;58753;49.440;11.126;2023-03-14T04:21:47;8.16;91.06
71096;DHT22;58753;49.440;11.126;2023-03-14T04:24:13;8.19;91.04
71096;DHT22;58753;49.440;11.126;2023-03-14T04:26:38;8.13;90.98
71096;DHT22;58753;49.440;11.126;2023-03-14T04:29:03;8.13;90.96
71096;DHT22;58753;49.440;11.126;2023-03-14T04:31:29;8.14;90.98
71096;DHT22;58753;49.440;11.126;2023-03-14T04:33:54;8.10;90.96
71096;DHT22;58753;49.440;11.126;2023-03-14T04:36:19;8.07;90.95
71096;DHT22;58753;49.440;11.126;2023-03-14T04:38:45;8.07;90.95
71096;DHT22;58753;49.440;11.126;2023-03-14T04:41:10;8.09;90.98
71096;DHT22;58753;49.440;11.126;2023-03-14T04:43:36;8.07;90.95
71096;DHT22;58753;49.440;11.126;2023-03-14T04:46:01;8.06;90.89
71096;DHT22;58753;49.440;11.126;2023-03-14T04:48:27;8.02;90.95
71096;DHT22;58753;49.440;11.126;2023-03-14T04:50:53;7.99;90.93
71096;DHT22;58753;49.440;11.126;2023-03-14T04:53:18;7.95;91.00
71096;DHT22;58753;49.440;11.126;2023-03-14T04:55:52;7.95;91.08
71096;DHT22;58753;49.440;11.126;2023-03-14T04:58:18;7.95;91.08
71096;DHT22;58753;49.440;11.126;2023-03-14T05:00:44;7.96;91.14
71096;DHT22;58753;49.440;11.126;2023-03-14T05:03:09;7.95;91.14
71096;DHT22;58753;49.440;11.126;2023-03-14T05:05:35;7.91;91.07
71096;DHT22;58753;49.440;11.126;2023-03-14T05:08:00;7.91;91.07
71096;DHT22;58753;49.440;11.126;2023-03-14T05:10:26;7.88;91.17
71096;DHT22;58753;49.440;11.126;2023-03-14T05:12:51;7.89;91.16
71096;DHT22;58753;49.440;11.126;2023-03-14T05:15:16;7.91;91.22
71096;DHT22;58753;49.440;11.126;2023-03-14T05:17:42;7.89;91.25
71096;DHT22;58753;49.440;11.126;2023-03-14T05:20:08;7.92;91.16
71096;DHT22;58753;49.440;11.126;2023-03-14T05:22:39;7.93;91.17
71096;DHT22;58753;49.440;11.126;2023-03-14T05:25:06;7.96;91.12
71096;DHT22;58753;49.440;11.126;2023-03-14T05:27:32;7.93;91.10
71096;DHT22;58753;49.440;11.126;2023-03-14T05:29:57;7.96;91.13
71096;DHT22;58753;49.440;11.126;2023-03-14T05:32:23;7.93;91.06
71096;DHT22;58753;49.440;11.126;2023-03-14T05:34:48;7.91;91.08
71096;DHT22;58753;49.440;11.126;2023-03-14T05:37:14;7.89;91.05
71096;DHT22;58753;49.440;11.126;2023-03-14T05:39:39;7.89;91.12
71096;DHT22;58753;49.440;11.126;2023-03-14T05:42:05;7.88;91.10
71096;DHT22;58753;49.440;11.126;2023-03-14T05:44:30;7.86;91.13
71096;DHT22;58753;49.440;11.126;2023-03-14T05:46:55;7.88;91.18
71096;DHT22;58753;49.440;11.126;2023-03-14T05:49:21;7.88;91.15
71096;DHT22;58753;49.440;11.126;2023-03-14T05:51:46;7.89;91.09
71096;DHT22;58753;49.440;11.126;2023-03-14T05:54:12;7.92;91.11
71096;DHT22;58753;49.440;11.126;2023-03-14T05:56:37;7.91;91.10
71096;DHT22;58753;49.440;11.126;2023-03-14T05:59:02;7.91;91.01
71096;DHT22;58753;49.440;11.126;2023-03-14T06:01:29;7.89;91.03
71096;DHT22;58753;49.440;11.126;2023-03-14T06:03:55;7.85;91.06
71096;DHT22;58753;49.440;11.126;2023-03-14T06:06:20;7.91;91.16
71096;DHT22;58753;49.440;11.126;2023-03-14T06:08:45;7.92;91.11
71096;DHT22;58753;49.440;11.126;2023-03-14T06:11:11;7.95;91.09
71096;DHT22;58753;49.440;11.126;2023-03-14T06:13:36;7.95;91.07
71096;DHT22;58753;49.440;11.126;2023-03-14T06:16:02;8.01;91.06
71096;DHT22;58753;49.440;11.126;2023-03-14T06:18:27;8.01;91.03
71096;DHT22;58753;49.440;11.126;2023-03-14T06:20:54;8.02;90.96
71096;DHT22;58753;49.440;11.126;2023-03-14T06:23:20;8.03;90.99
71096;DHT22;58753;49.440;11.126;2023-03-14T06:25:45;8.05;90.97
71096;DHT22;58753;49.440;11.126;2023-03-14T06:28:11;8.07;90.96
71096;DHT22;58753;49.440;11.126;2023-03-14T06:30:36;8.10;90.94
71096;DHT22;58753;49.440;11.126;2023-03-14T06:33:02;8.13;90.89
71096;DHT22;58753;49.440;11.126;2023-03-14T06:35:27;8.16;90.90
71096;DHT22;58753;49.440;11.126;2023-03-14T06:37:53;8.23;90.83
71096;DHT22;58753;49.440;11.126;2023-03-14T06:40:18;8.25;90.75
71096;DHT22;58753;49.440;11.126;2023-03-14T06:42:44;8.25;90.72
71096;DHT22;58753;49.440;11.126;2023-03-14T06:45:10;8.25;90.64
71096;DHT22;58753;49.440;11.126;2023-03-14T06:47:36;8.29;90.64
71096;DHT22;58753;49.440;11.126;2023-03-14T06:50:04;8.32;90.63
71096;DHT22;58753;49.440;11.126;2023-03-14T06:52:29;8.30;90.66
71096;DHT22;58753;49.440;11.126;2023-03-14T06:54:54;8.36;90.60
71096;DHT22;58753;49.440;11.126;2023-03-14T06:57:20;8.39;90.66
71096;DHT22;58753;49.440;11.126;2023-03-14T06:59:45;8.46;90.62
71096;DHT22;58753;49.440;11.126;2023-03-14T07:02:12;8.50;90.51
71096;DHT22;58753;49.440;11.126;2023-03-14T07:04:38;8.53;90.30
71096;DHT22;58753;49.440;11.126;2023-03-14T07:07:03;8.57;90.34
71096;DHT22;58753;49.440;11.126;2023-03-14T07:09:29;8.60;90.19
71096;DHT22;58753;49.440;11.126;2023-03-14T07:11:54;8.68;90.16
71096;DHT22;58753;49.440;11.126;2023-03-14T07:14:20;8.73;89.91
71096;DHT22;58753;49.440;11.126;2023-03-14T07:16:45;8.77;89.72
71096;DHT22;58753;49.440;11.126;2023-03-14T07:19:11;8.84;89.64
71096;DHT22;58753;49.440;11.126;2023-03-14T07:21:36;8.87;89.58
71096;DHT22;58753;49.440;11.126;2023-03-14T07:24:02;8.91;89.50
71096;DHT22;58753;49.440;11.126;2023-03-14T07:26:27;8.94;89.25
71096;DHT22;58753;49.440;11.126;2023-03-14T07:28:53;9.00;89.15
71096;DHT22;58753;49.440;11.126;2023-03-14T07:31:18;9.01;89.14
71096;DHT22;58753;49.440;11.126;2023-03-14T07:33:44;9.03;88.99
71096;DHT22;58753;49.440;11.126;2023-03-14T07:36:09;9.07;88.95
71096;DHT22;58753;49.440;11.126;2023-03-14T07:38:35;9.08;88.87
71096;DHT22;58753;49.440;11.126;2023-03-14T07:41:01;9.11;88.62
71096;DHT22;58753;49.440;11.126;2023-03-14T07:43:27;9.17;88.81
71096;DHT22;58753;49.440;11.126;2023-03-14T07:45:53;9.18;88.65
71096;DHT22;58753;49.440;11.126;2023-03-14T07:48:18;9.21;88.41
71096;DHT22;58753;49.440;11.126;2023-03-14T07:50:44;9.21;88.15
71096;DHT22;58753;49.440;11.126;2023-03-14T07:53:12;9.21;88.09
71096;DHT22;58753;49.440;11.126;2023-03-14T07:55:40;9.24;87.97
71096;DHT22;58753;49.440;11.126;2023-03-14T07:58:05;9.31;87.89
71096;DHT22;58753;49.440;11.126;2023-03-14T08:00:31;9.35;87.66
71096;DHT22;58753;49.440;11.126;2023-03-14T08:02:57;9.42;87.51
71096;DHT22;58753;49.440;11.126;2023-03-14T08:05:23;9.48;87.55
71096;DHT22;58753;49.440;11.126;2023-03-14T08:07:48;9.58;87.09
71096;DHT22;58753;49.440;11.126;2023-03-14T08:10:14;9.60;86.92
71096;DHT22;58753;49.440;11.126;2023-03-14T08:12:46;9.62;86.84
71096;DHT22;58753;49.440;11.126;2023-03-14T08:15:11;9.60;86.57
71096;DHT22;58753;49.440;11.126;2023-03-14T08:17:37;9.65;86.48
71096;DHT22;58753;49.440;11.126;2023-03-14T08:20:03;9.69;86.42
71096;DHT22;58753;49.440;11.126;2023-03-14T08:22:31;9.80;86.27
71096;DHT22;58753;49.440;11.126;2023-03-14T08:24:57;9.96;86.19
71096;DHT22;58753;49.440;11.126;2023-03-14T08:27:22;10.07;85.86
71096;DHT22;58753;49.440;11.126;2023-03-14T08:29:48;10.16;85.37
71096;DHT22;58753;49.440;11.126;2023-03-14T08:32:13;10.29;84.86
71096;DHT22;58753;49.440;11.126;2023-03-14T08:34:38;10.27;84.11
71096;DHT22;58753;49.440;11.126;2023-03-14T08:37:05;10.23;83.59
71096;DHT22;58753;49.440;11.126;2023-03-14T08:39:30;10.33;83.76
71096;DHT22;58753;49.440;11.126;2023-03-14T08:41:56;10.45;83.44
71096;DHT22;58753;49.440;11.126;2023-03-14T08:44:21;10.50;83.41
71096;DHT22;58753;49.440;11.126;2023-03-14T08:46:46;10.54;83.05
71096;DHT22;58753;49.440;11.126;2023-03-14T08:49:12;10.60;82.25
71096;DHT22;58753;49.440;11.126;2023-03-14T08:51:38;10.68;82.13
71096;DHT22;58753;49.440;11.126;2023-03-14T08:54:03;10.79;81.80
71096;DHT22;58753;49.440;11.126;2023-03-14T08:56:28;10.88;80.71
71096;DHT22;58753;49.440;11.126;2023-03-14T08:58:54;10.95;80.55
71096;DHT22;58753;49.440;11.126;2023-03-14T09:01:19;11.01;79.56
71096;DHT22;58753;49.440;11.126;2023-03-14T09:03:45;11.08;79.19
71096;DHT22;58753;49.440;11.126;2023-03-14T09:06:12;11.18;79.11
71096;DHT22;58753;49.440;11.126;2023-03-14T09:08:37;11.23;78.27
71096;DHT22;58753;49.440;11.126;2023-03-14T09:11:03;11.28;77.77
71096;DHT22;58753;49.440;11.126;2023-03-14T09:13:31;11.32;77.47
71096;DHT22;58753;49.440;11.126;2023-03-14T09:15:56;11.30;77.28
71096;DHT22;58753;49.440;11.126;2023-03-14T09:18:22;11.43;76.79
71096;DHT22;58753;49.440;11.126;2023-03-14T09:20:48;11.53;76.11
71096;DHT22;58753;49.440;11.126;2023-03-14T09:23:14;11.57;75.57
71096;DHT22;58753;49.440;11.126;2023-03-14T09:25:39;11.67;74.69
71096;DHT22;58753;49.440;11.126;2023-03-14T09:28:05;11.71;74.83
71096;DHT22;58753;49.440;11.126;2023-03-14T09:30:30;11.77;73.92
71096;DHT22;58753;49.440;11.126;2023-03-14T09:32:56;11.89;73.78
71096;DHT22;58753;49.440;11.126;2023-03-14T09:35:23;12.02;74.00
71096;DHT22;58753;49.440;11.126;2023-03-14T09:37:48;12.20;72.87
71096;DHT22;58753;49.440;11.126;2023-03-14T09:40:18;12.34;72.98
71096;DHT22;58753;49.440;11.126;2023-03-14T09:42:47;12.37;72.34
71096;DHT22;58753;49.440;11.126;2023-03-14T09:45:19;12.41;72.17
71096;DHT22;58753;49.440;11.126;2023-03-14T09:47:46;12.31;70.97
71096;DHT22;58753;49.440;11.126;2023-03-14T09:50:15;12.30;70.17
71096;DHT22;58753;49.440;11.126;2023-03-14T09:52:45;12.21;70.29
71096;DHT22;58753;49.440;11.126;2023-03-14T09:55:19;12.08;69.90
71096;DHT22;58753;49.440;11.126;2023-03-14T09:57:47;11.95;70.36
71096;DHT22;58753;49.440;11.126;2023-03-14T10:00:32;11.87;70.26
71096;DHT22;58753;49.440;11.126;2023-03-14T10:05:39;11.76;70.12
71096;DHT22;58753;49.440;11.126;2023-03-14T10:08:05;11.70;70.07
71096;DHT22;58753;49.440;11.126;2023-03-14T10:10:33;11.65;70.47
71096;DHT22;58753;49.440;11.126;2023-03-14T10:15:37;11.56;70.52
71096;DHT22;58753;49.440;11.126;2023-03-14T10:18:05;11.53;70.53
71096;DHT22;58753;49.440;11.126;2023-03-14T10:20:45;11.66;70.76
71096;DHT22;58753;49.440;11.126;2023-03-14T10:25:39;11.94;70.19
71096;DHT22;58753;49.440;11.126;2023-03-14T10:28:05;12.10;69.94
71096;DHT22;58753;49.440;11.126;2023-03-14T10:30:45;12.22;69.86
71096;DHT22;58753;49.440;11.126;2023-03-14T10:35:42;12.35;69.08
71096;DHT22;58753;49.440;11.126;2023-03-14T10:38:13;12.40;68.85
71096;DHT22;58753;49.440;11.126;2023-03-14T10:40:40;12.42;68.42
71096;DHT22;58753;49.440;11.126;2023-03-14T10:43:16;12.45;67.56
71096;DHT22;58753;49.440;11.126;2023-03-14T10:45:44;12.61;67.38
71096;DHT22;58753;49.440;11.126;2023-03-14T10:48:30;12.59;66.72
71096;DHT22;58753;49.440;11.126;2023-03-14T10:53:25;12.44;65.75
71096;DHT22;58753;49.440;11.126;2023-03-14T10:55:51;12.34;65.85
71096;DHT22;58753;49.440;11.126;2023-03-14T10:58:27;12.30;65.83
71096;DHT22;58753;49.440;11.126;2023-03-14T11:01:02;12.18;65.50
71096;DHT22;58753;49.440;11.126;2023-03-14T11:03:32;12.08;65.83
71096;DHT22;58753;49.440;11.126;2023-03-14T11:06:28;12.10;65.99
71096;DHT22;58753;49.440;11.126;2023-03-14T11:09:02;12.07;66.03
71096;DHT22;58753;49.440;11.126;2023-03-14T11:11:32;12.02;66.30
71096;DHT22;58753;49.440;11.126;2023-03-14T11:17:11;11.94;66.08
71096;DHT22;58753;49.440;11.126;2023-03-14T11:24:55;11.62;67.48
71096;DHT22;58753;49.440;11.126;2023-03-14T11:27:42;11.52;68.08
71096;DHT22;58753;49.440;11.126;2023-03-14T11:32:55;11.29;69.94
71096;DHT22;58753;49.440;11.126;2023-03-14T11:38:23;11.70;74.63
71096;DHT22;58753;49.440;11.126;2023-03-14T11:40:50;13.46;74.46
71096;DHT22;58753;49.440;11.126;2023-03-14T11:43:26;14.38;72.01
71096;DHT22;58753;49.440;11.126;2023-03-14T11:45:58;14.96;71.33
71096;DHT22;58753;49.440;11.126;2023-03-14T11:48:36;14.84;68.67
71096;DHT22;58753;49.440;11.126;2023-03-14T11:51:11;15.78;69.07
71096;DHT22;58753;49.440;11.126;2023-03-14T11:56:39;17.32;63.62
71096;DHT22;58753;49.440;11.126;2023-03-14T11:59:19;16.88;60.44
71096;DHT22;58753;49.440;11.126;2023-03-14T12:01:53;15.31;61.11
71096;DHT22;58753;49.440;11.126;2023-03-14T12:06:57;13.58;65.09
71096;DHT22;58753;49.440;11.126;2023-03-14T12:09:27;13.35;66.77
71096;DHT22;58753;49.440;11.126;2023-03-14T12:11:56;13.27;67.78
71096;DHT22;58753;49.440;11.126;2023-03-14T12:14:34;14.11;69.38
71096;DHT22;58753;49.440;11.126;2023-03-14T12:17:04;13.92;65.17
71096;DHT22;58753;49.440;11.126;2023-03-14T12:19:33;14.35;66.80
71096;DHT22;58753;49.440;11.126;2023-03-14T12:22:13;13.64;63.07
71096;DHT22;58753;49.440;11.126;2023-03-14T12:24:45;13.32;64.50
71096;DHT22;58753;49.440;11.126;2023-03-14T12:27:13;13.68;64.14
71096;DHT22;58753;49.440;11.126;2023-03-14T12:30:00;13.70;63.05
71096;DHT22;58753;49.440;11.126;2023-03-14T12:32:26;13.42;63.04
71096;DHT22;58753;49.440;11.126;2023-03-14T12:34:51;13.26;63.09
71096;DHT22;58753;49.440;11.126;2023-03-14T12:37:37;13.35;63.28
71096;DHT22;58753;49.440;11.126;2023-03-14T12:40:15;13.44;63.16
71096;DHT22;58753;49.440;11.126;2023-03-14T12:43:02;13.51;62.24
71096;DHT22;58753;49.440;11.126;2023-03-14T12:45:35;13.57;61.68
71096;DHT22;58753;49.440;11.126;2023-03-14T12:51:00;13.26;61.58
71096;DHT22;58753;49.440;11.126;2023-03-14T12:56:45;12.78;62.44
71096;DHT22;58753;49.440;11.126;2023-03-14T13:15:24;11.49;68.84
71096;DHT22;58753;49.440;11.126;2023-03-14T13:17:51;11.22;70.29
71096;DHT22;58753;49.440;11.126;2023-03-14T13:20:31;10.99;72.01
71096;DHT22;58753;49.440;11.126;2023-03-14T13:22:57;10.95;73.40
71096;DHT22;58753;49.440;11.126;2023-03-14T13:25:22;10.96;74.00
71096;DHT22;58753;49.440;11.126;2023-03-14T13:27:49;10.98;74.90
71096;DHT22;58753;49.440;11.126;2023-03-14T13:30:26;10.89;75.28
71096;DHT22;58753;49.440;11.126;2023-03-14T13:32:53;10.68;76.06
71096;DHT22;58753;49.440;11.126;2023-03-14T13:35:28;10.41;76.58
71096;DHT22;58753;49.440;11.126;2023-03-14T13:37:58;10.16;77.21
71096;DHT22;58753;49.440;11.126;2023-03-14T13:40:31;9.99;77.79
71096;DHT22;58753;49.440;11.126;2023-03-14T13:43:20;9.80;78.69
71096;DHT22;58753;49.440;11.126;2023-03-14T13:48:17;9.59;79.79
71096;DHT22;58753;49.440;11.126;2023-03-14T13:50:50;9.56;80.29
71096;DHT22;58753;49.440;11.126;2023-03-14T13:53:17;9.48;80.48
71096;DHT22;58753;49.440;11.126;2023-03-14T13:55:43;9.46;81.16
71096;DHT22;58753;49.440;11.126;2023-03-14T13:58:34;9.45;81.87
71096;DHT22;58753;49.440;11.126;2023-03-14T14:03:55;9.40;82.41
71096;DHT22;58753;49.440;11.126;2023-03-14T14:06:49;9.36;82.96
71096;DHT22;58753;49.440;11.126;2023-03-14T14:09:17;9.34;83.10
71096;DHT22;58753;49.440;11.126;2023-03-14T14:11:52;9.32;83.57
71096;DHT22;58753;49.440;11.126;2023-03-14T14:14:33;9.29;83.72
71096;DHT22;58753;49.440;11.126;2023-03-14T14:17:00;9.29;83.92
71096;DHT22;58753;49.440;11.126;2023-03-14T14:19:28;9.31;84.03
71096;DHT22;58753;49.440;11.126;2023-03-14T14:21:55;9.32;84.28
71096;DHT22;58753;49.440;11.126;2023-03-14T14:24:23;9.46;84.36
71096;DHT22;58753;49.440;11.126;2023-03-14T14:26:53;9.58;84.00
71096;DHT22;58753;49.440;11.126;2023-03-14T14:29:33;9.55;83.05
71096;DHT22;58753;49.440;11.126;2023-03-14T14:32:11;9.48;83.09
71096;DHT22;58753;49.440;11.126;2023-03-14T14:34:42;9.32;82.85
71096;DHT22;58753;49.440;11.126;2023-03-14T14:37:19;9.15;82.21
71096;DHT22;58753;49.440;11.126;2023-03-14T14:39:45;9.05;82.04
71096;DHT22;58753;49.440;11.126;2023-03-14T14:42:15;9.03;82.03
71096;DHT22;58753;49.440;11.126;2023-03-14T14:44:44;8.98;82.31
71096;DHT22;58753;49.440;11.126;2023-03-14T14:47:14;8.89;82.23
71096;DHT22;58753;49.440;11.126;2023-03-14T14:49:40;8.87;82.35
71096;DHT22;58753;49.440;11.126;2023-03-14T14:54:44;8.66;82.25
71096;DHT22;58753;49.440;11.126;2023-03-14T14:57:19;8.42;82.48
71096;DHT22;58753;49.440;11.126;2023-03-14T14:59:48;8.33;82.94
71096;DHT22;58753;49.440;11.126;2023-03-14T15:02:38;8.14;83.03
71096;DHT22;58753;49.440;11.126;2023-03-14T15:05:20;7.92;83.15
71096;DHT22;58753;49.440;11.126;2023-03-14T15:07:46;7.77;83.60
71096;DHT22;58753;49.440;11.126;2023-03-14T15:10:15;7.60;84.03
71096;DHT22;58753;49.440;11.126;2023-03-14T15:12:41;7.46;84.27
71096;DHT22;58753;49.440;11.126;2023-03-14T15:15:07;7.32;84.58
71096;DHT22;58753;49.440;11.126;2023-03-14T15:17:34;7.18;84.41
71096;DHT22;58753;49.440;11.126;2023-03-14T15:20:02;7.07;84.37
71096;DHT22;58753;49.440;11.126;2023-03-14T15:22:30;6.99;84.31
71096;DHT22;58753;49.440;11.126;2023-03-14T15:24:55;6.96;84.44
71096;DHT22;58753;49.440;11.126;2023-03-14T15:27:21;6.90;84.38
71096;DHT22;58753;49.440;11.126;2023-03-14T15:29:46;6.85;84.09
71096;DHT22;58753;49.440;11.126;2023-03-14T15:32:14;6.83;84.23
71096;DHT22;58753;49.440;11.126;2023-03-14T15:34:40;6.86;84.33
71096;DHT22;58753;49.440;11.126;2023-03-14T15:37:12;6.82;84.36
71096;DHT22;58753;49.440;11.126;2023-03-14T15:39:39;6.82;84.27
71096;DHT22;58753;49.440;11.126;2023-03-14T15:42:05;6.90;83.84
71096;DHT22;58753;49.440;11.126;2023-03-14T15:44:30;6.87;83.32
71096;DHT22;58753;49.440;11.126;2023-03-14T15:46:56;6.89;83.23
71096;DHT22;58753;49.440;11.126;2023-03-14T15:49:21;6.92;82.98
71096;DHT22;58753;49.440;11.126;2023-03-14T15:51:46;6.99;82.79
71096;DHT22;58753;49.440;11.126;2023-03-14T15:54:12;6.97;82.34
71096;DHT22;58753;49.440;11.126;2023-03-14T15:56:37;6.99;82.14
71096;DHT22;58753;49.440;11.126;2023-03-14T15:59:02;7.06;81.74
71096;DHT22;58753;49.440;11.126;2023-03-14T16:01:28;7.04;81.78
71096;DHT22;58753;49.440;11.126;2023-03-14T16:03:53;7.03;81.55
71096;DHT22;58753;49.440;11.126;2023-03-14T16:06:19;7.01;81.46
71096;DHT22;58753;49.440;11.126;2023-03-14T16:08:45;7.01;80.52
71096;DHT22;58753;49.440;11.126;2023-03-14T16:11:12;6.97;79.77
71096;DHT22;58753;49.440;11.126;2023-03-14T16:13:39;7.04;78.61
71096;DHT22;58753;49.440;11.126;2023-03-14T16:16:06;7.13;77.60
71096;DHT22;58753;49.440;11.126;2023-03-14T16:18:34;7.26;76.01
71096;DHT22;58753;49.440;11.126;2023-03-14T16:21:05;7.23;75.00
71096;DHT22;58753;49.440;11.126;2023-03-14T16:23:32;7.20;74.00
71096;DHT22;58753;49.440;11.126;2023-03-14T16:25:58;7.21;73.62
71096;DHT22;58753;49.440;11.126;2023-03-14T16:28:25;7.21;72.61
71096;DHT22;58753;49.440;11.126;2023-03-14T16:30:51;7.32;72.31
71096;DHT22;58753;49.440;11.126;2023-03-14T16:33:16;7.43;71.47
71096;DHT22;58753;49.440;11.126;2023-03-14T16:35:53;7.41;71.08